Time;durP1;ratioP1;P1;durP2;ratioP2;P2;SDS_P1;SDS_P2;PMS_P1;PMS_P2;Temp;Humidity;BMP_temperature;BMP_pressure;BME280_temperature;BME280_humidity;BME280_pressure;Samples;Min_cycle;Max_cycle;Signal;HPM_P1;HPM_P2
2022/06/21 03:00:13;;;;;;;1.17;0.40;;;24.90;33.40;;;;;;6056387;23;46355;31
2022/06/21 03:02:39;;;;;;;0.70;0.45;;;24.80;33.60;;;;;;4885262;28;45277;-61
2022/06/21 03:05:17;;;;;;;1.52;0.57;;;24.80;33.90;;;;;;4913909;28;45327;-61
2022/06/21 03:07:44;;;;;;;0.43;0.32;;;24.80;33.80;;;;;;4896683;28;45199;-59
2022/06/21 03:10:18;;;;;;;1.33;0.40;;;24.80;33.90;;;;;;4903223;28;45848;-59
2022/06/21 03:12:44;;;;;;;0.85;0.45;;;24.80;33.70;;;;;;4900601;28;44721;-60
2022/06/21 03:15:10;;;;;;;1.17;0.52;;;24.80;33.80;;;;;;4917425;28;45361;-61
2022/06/21 03:17:52;;;;;;;0.98;0.45;;;24.80;33.70;;;;;;4911934;28;45531;-59
2022/06/21 03:20:18;;;;;;;1.27;0.40;;;24.80;33.70;;;;;;4904293;28;45321;-59
2022/06/21 03:22:44;;;;;;;0.30;0.30;;;24.80;33.70;;;;;;4897522;28;44703;-60
2022/06/21 03:25:19;;;;;;;0.90;0.50;;;24.80;33.70;;;;;;4918593;28;45628;-62
2022/06/21 03:27:51;;;;;;;1.17;0.57;;;24.80;33.60;;;;;;4884381;28;44790;-59
2022/06/21 03:30:18;;;;;;;0.65;0.40;;;24.80;33.60;;;;;;4916635;28;48183;-59
2022/06/21 03:32:43;;;;;;;0.45;0.30;;;24.80;33.70;;;;;;4917180;28;45572;-59
2022/06/21 03:35:09;;;;;;;0.95;0.40;;;24.80;33.80;;;;;;4898584;28;45569;-62
2022/06/21 03:37:38;;;;;;;1.30;0.60;;;24.70;33.70;;;;;;4896702;28;45247;-59
2022/06/21 03:42:50;;;;;;;0.80;0.50;;;24.70;33.70;;;;;;4904369;28;45979;-59
2022/06/21 03:45:20;;;;;;;1.23;0.50;;;24.70;33.70;;;;;;4902698;28;45394;-59
2022/06/21 03:47:47;;;;;;;1.48;0.75;;;24.70;33.70;;;;;;4918148;28;47898;-59
2022/06/21 03:50:16;;;;;;;1.50;0.60;;;24.70;33.70;;;;;;4901689;28;44969;-60
2022/06/21 03:53:08;;;;;;;1.20;0.60;;;24.70;33.80;;;;;;4898471;28;45195;-59
2022/06/21 03:55:41;;;;;;;1.17;0.40;;;24.80;33.40;;;;;;4908139;28;45523;-60
2022/06/21 03:58:21;;;;;;;1.63;0.70;;;24.80;33.70;;;;;;4916284;28;45537;-60
2022/06/21 04:00:49;;;;;;;1.98;0.63;;;24.80;33.70;;;;;;4902616;28;45264;-61
2022/06/21 04:03:41;;;;;;;0.82;0.50;;;24.70;33.80;;;;;;4915800;28;45987;-61
2022/06/21 04:06:30;;;;;;;1.48;0.60;;;24.70;33.70;;;;;;4932857;28;45255;-58
2022/06/21 04:09:07;;;;;;;0.55;0.40;;;24.70;34.00;;;;;;4936702;28;45023;-58
2022/06/21 04:11:42;;;;;;;1.95;0.45;;;24.60;33.90;;;;;;4919100;28;45917;-62
2022/06/21 04:14:49;;;;;;;1.40;0.70;;;24.60;34.00;;;;;;4904572;28;45380;-59
2022/06/21 04:17:29;;;;;;;1.27;0.50;;;24.60;34.10;;;;;;4935288;28;45688;-60
2022/06/21 04:20:06;;;;;;;1.90;0.60;;;24.60;34.10;;;;;;4934752;28;45671;-61
2022/06/21 04:22:34;;;;;;;1.25;0.60;;;24.60;34.30;;;;;;4901507;28;46234;-60
2022/06/21 04:25:16;;;;;;;1.58;0.52;;;24.60;34.30;;;;;;4936828;28;45568;-60
2022/06/21 04:27:55;;;;;;;1.55;0.68;;;24.60;35.10;;;;;;4920589;28;45382;-62
2022/06/21 04:30:27;;;;;;;0.65;0.47;;;24.60;34.50;;;;;;4894620;28;45203;-61
2022/06/21 04:33:09;;;;;;;4.55;0.77;;;24.60;34.60;;;;;;4926291;28;46316;-62
2022/06/21 04:35:40;;;;;;;1.02;0.50;;;24.60;34.70;;;;;;4913435;28;45606;-62
2022/06/21 04:38:13;;;;;;;2.17;0.68;;;24.60;34.70;;;;;;4898199;28;45272;-61
2022/06/21 04:40:42;;;;;;;1.17;0.40;;;24.60;34.80;;;;;;4929007;28;45729;-61
2022/06/21 04:43:19;;;;;;;1.35;0.80;;;24.60;34.90;;;;;;4913081;28;46427;-62
2022/06/21 04:46:12;;;;;;;0.95;0.85;;;24.60;35.10;;;;;;4913535;28;45713;-62
2022/06/21 04:49:07;;;;;;;1.45;0.85;;;24.60;35.20;;;;;;4914238;28;45726;-61
2022/06/21 04:51:45;;;;;;;1.13;0.45;;;24.60;35.40;;;;;;4921705;28;45702;-60
2022/06/21 04:54:24;;;;;;;3.65;0.95;;;24.60;35.40;;;;;;4892959;28;46496;-60
2022/06/21 04:57:12;;;;;;;0.88;0.50;;;24.60;35.40;;;;;;4930282;28;45441;-63
2022/06/21 04:59:45;;;;;;;1.40;0.52;;;24.60;35.60;;;;;;4929185;28;46203;-62
2022/06/21 05:02:34;;;;;;;3.05;1.00;;;24.60;35.70;;;;;;4926399;28;45726;-60
2022/06/21 05:05:03;;;;;;;1.88;0.50;;;24.60;35.80;;;;;;4935049;28;46121;-62
2022/06/21 05:07:31;;;;;;;2.13;0.80;;;24.60;35.70;;;;;;4948942;28;45380;-61
2022/06/21 05:09:56;;;;;;;2.00;0.70;;;24.60;35.80;;;;;;4935839;28;45721;-60
2022/06/21 05:12:30;;;;;;;1.45;0.65;;;24.60;35.80;;;;;;4932947;28;45318;-61
2022/06/21 05:15:04;;;;;;;0.82;0.65;;;24.70;36.00;;;;;;4935300;28;46983;-61
2022/06/21 05:17:30;;;;;;;2.28;0.47;;;24.70;36.00;;;;;;4929339;28;45459;-61
2022/06/21 05:19:58;;;;;;;1.42;0.80;;;24.70;36.00;;;;;;4934885;28;45513;-61
2022/06/21 05:22:32;;;;;;;4.30;0.73;;;24.70;36.00;;;;;;4932284;28;45415;-60
2022/06/21 05:24:59;;;;;;;1.55;0.90;;;24.80;36.20;;;;;;4936480;28;45892;-61
2022/06/21 05:27:44;;;;;;;1.10;0.70;;;24.80;36.10;;;;;;4932237;28;45351;-62
2022/06/21 05:30:18;;;;;;;0.68;0.68;;;24.80;36.20;;;;;;4939140;28;45763;-60
2022/06/21 05:32:53;;;;;;;2.22;0.88;;;24.80;36.10;;;;;;4943903;28;45390;-59
2022/06/21 05:35:25;;;;;;;1.35;0.65;;;24.90;36.10;;;;;;4947246;28;45306;-60
2022/06/21 05:38:02;;;;;;;0.70;0.50;;;25.00;36.00;;;;;;4957917;28;45309;-61
2022/06/21 05:40:37;;;;;;;3.78;0.98;;;25.00;36.10;;;;;;4942586;28;45511;-59
2022/06/21 05:43:02;;;;;;;4.07;0.60;;;25.10;36.10;;;;;;4961091;28;44685;-58
2022/06/21 05:45:34;;;;;;;0.80;0.63;;;25.10;36.10;;;;;;4942082;28;46314;-59
2022/06/21 05:48:07;;;;;;;0.80;0.40;;;25.20;36.20;;;;;;4956968;28;45416;-57
2022/06/21 05:50:34;;;;;;;2.20;0.63;;;25.20;36.00;;;;;;4936801;28;45283;-60
2022/06/21 05:53:12;;;;;;;0.88;0.52;;;25.30;36.10;;;;;;4942351;28;45539;-60
2022/06/21 05:55:41;;;;;;;4.80;0.60;;;25.30;36.10;;;;;;4946717;28;45739;-59
2022/06/21 05:58:10;;;;;;;1.30;0.52;;;25.40;36.10;;;;;;4956213;28;44690;-59
2022/06/21 06:00:38;;;;;;;1.85;0.75;;;25.40;36.10;;;;;;4923929;28;45675;-58
2022/06/21 06:03:11;;;;;;;0.55;0.40;;;25.50;36.10;;;;;;4963144;28;44797;-61
2022/06/21 06:05:37;;;;;;;1.25;0.60;;;25.60;36.20;;;;;;4924988;28;46390;-59
2022/06/21 06:08:22;;;;;;;1.77;0.70;;;25.60;36.00;;;;;;4958436;28;45662;-61
2022/06/21 06:10:47;;;;;;;1.77;0.57;;;25.70;36.20;;;;;;4944281;28;45395;-58
2022/06/21 06:13:16;;;;;;;0.95;0.57;;;25.70;36.10;;;;;;4912112;28;45452;-59
2022/06/21 06:15:52;;;;;;;1.95;0.60;;;25.80;36.20;;;;;;4926906;28;45296;-58
2022/06/21 06:18:30;;;;;;;1.20;0.70;;;25.80;36.20;;;;;;4935390;28;45349;-59
2022/06/21 06:21:01;;;;;;;1.13;0.60;;;25.90;36.20;;;;;;4944484;28;44993;-59
2022/06/21 06:23:52;;;;;;;1.17;0.50;;;26.00;36.30;;;;;;4961036;28;48275;-59
2022/06/21 06:26:20;;;;;;;1.25;0.77;;;26.00;36.30;;;;;;4958003;28;46182;-61
2022/06/21 06:28:46;;;;;;;0.98;0.40;;;26.10;36.20;;;;;;4947951;28;45570;-59
2022/06/21 06:31:16;;;;;;;1.40;0.77;;;26.20;36.20;;;;;;4956033;28;45283;-56
2022/06/21 06:34:05;;;;;;;0.68;0.50;;;26.30;36.10;;;;;;4938767;28;44701;-56
2022/06/21 06:36:33;;;;;;;1.55;0.73;;;26.30;36.10;;;;;;4937864;28;46049;-54
2022/06/21 06:38:59;;;;;;;2.05;1.08;;;26.40;36.10;;;;;;4944610;28;45279;-57
2022/06/21 06:41:34;;;;;;;0.90;0.68;;;26.50;36.10;;;;;;4957700;28;46472;-58
2022/06/21 06:44:04;;;;;;;0.77;0.52;;;26.60;36.10;;;;;;4941422;28;45208;-57
2022/06/21 06:46:34;;;;;;;2.05;0.68;;;26.60;36.00;;;;;;4922299;28;49567;-59
2022/06/21 06:49:24;;;;;;;0.90;0.50;;;26.80;36.00;;;;;;4958588;28;45498;-59
2022/06/21 06:52:04;;;;;;;1.30;0.60;;;26.80;35.90;;;;;;4934551;28;45540;-60
2022/06/21 06:54:41;;;;;;;1.48;0.60;;;26.90;36.00;;;;;;4926252;28;45549;-57
2022/06/21 06:57:31;;;;;;;2.35;0.50;;;27.00;36.00;;;;;;4926015;28;45358;-58
2022/06/21 06:59:58;;;;;;;2.03;0.40;;;27.10;36.00;;;;;;4962140;28;45469;-57
2022/06/21 07:02:36;;;;;;;0.50;0.40;;;27.10;36.00;;;;;;4963140;28;45557;-59
2022/06/21 07:05:23;;;;;;;0.68;0.47;;;27.10;36.00;;;;;;4940808;28;46105;-59
2022/06/21 07:07:53;;;;;;;1.27;0.57;;;27.10;36.00;;;;;;4959655;28;45146;-60
2022/06/21 07:10:20;;;;;;;2.00;0.82;;;27.20;36.10;;;;;;4941973;28;45366;-58
2022/06/21 07:12:46;;;;;;;0.80;0.60;;;27.20;36.10;;;;;;4952727;28;45719;-60
2022/06/21 07:15:12;;;;;;;1.25;0.65;;;27.20;36.10;;;;;;4927813;28;45523;-59
2022/06/21 07:18:04;;;;;;;0.35;0.30;;;27.20;36.10;;;;;;4958006;28;45864;-59
2022/06/21 07:20:37;;;;;;;0.85;0.50;;;27.30;36.30;;;;;;4949637;28;45562;-58
2022/06/21 07:23:03;;;;;;;0.85;0.55;;;27.30;36.40;;;;;;4922999;28;45562;-59
2022/06/21 07:25:34;;;;;;;0.77;0.47;;;27.30;36.30;;;;;;4939237;28;45437;-58
2022/06/21 07:28:15;;;;;;;0.60;0.40;;;27.40;36.40;;;;;;4942018;28;46844;-58
2022/06/21 07:30:42;;;;;;;0.50;0.50;;;27.40;36.40;;;;;;4953030;28;44918;-56
2022/06/21 07:33:18;;;;;;;1.25;0.52;;;27.40;36.40;;;;;;4906897;28;45382;-58
2022/06/21 07:35:53;;;;;;;1.52;0.60;;;27.50;36.50;;;;;;4924229;28;45327;-56
2022/06/21 07:38:47;;;;;;;1.20;0.40;;;27.50;36.40;;;;;;4922946;28;46381;-58
2022/06/21 07:41:16;;;;;;;0.60;0.52;;;27.50;36.50;;;;;;4950968;28;45329;-58
2022/06/21 07:43:48;;;;;;;0.88;0.50;;;27.60;36.50;;;;;;4938896;28;45428;-59
2022/06/21 07:46:25;;;;;;;1.17;0.50;;;27.60;36.50;;;;;;4921939;28;44995;-58
2022/06/21 07:48:53;;;;;;;0.93;0.47;;;27.60;36.50;;;;;;4922756;28;45935;-59
2022/06/21 07:51:46;;;;;;;1.38;0.45;;;27.60;36.50;;;;;;4944055;28;45321;-59
2022/06/21 07:54:49;;;;;;;0.98;0.38;;;27.70;36.70;;;;;;4946561;28;44815;-58
2022/06/21 07:57:35;;;;;;;0.52;0.50;;;27.70;36.70;;;;;;4882877;28;45407;-59
2022/06/21 08:00:11;;;;;;;3.58;0.60;;;27.70;36.60;;;;;;4931738;28;45470;-59
2022/06/21 08:08:18;;;;;;;0.60;0.43;;;27.80;36.70;;;;;;4960633;28;45778;-60
2022/06/21 08:10:56;;;;;;;1.35;0.60;;;27.90;36.70;;;;;;4926189;28;46043;-60
2022/06/21 08:13:22;;;;;;;1.15;0.60;;;27.90;36.80;;;;;;4928698;28;44845;-60
2022/06/21 08:15:55;;;;;;;0.43;0.40;;;27.90;36.70;;;;;;4925247;28;44818;-60
2022/06/21 08:18:26;;;;;;;;;;;28.00;36.80;;;;;;4925496;28;45729;-60
2022/06/21 08:20:58;;;;;;;0.77;0.52;;;28.00;36.90;;;;;;4936762;28;46051;-60
2022/06/21 08:23:32;;;;;;;0.70;0.50;;;28.00;36.70;;;;;;4924490;28;45409;-60
2022/06/21 08:26:02;;;;;;;1.30;0.50;;;28.10;36.80;;;;;;4943546;28;44812;-61
2022/06/21 08:28:31;;;;;;;1.02;0.75;;;28.10;36.80;;;;;;4958209;28;45440;-60
2022/06/21 08:30:58;;;;;;;0.47;0.40;;;28.10;36.70;;;;;;4956575;28;45909;-59
2022/06/21 08:33:30;;;;;;;0.73;0.50;;;28.10;36.70;;;;;;4934475;28;45809;-61
2022/06/21 08:36:18;;;;;;;0.80;0.50;;;28.10;36.80;;;;;;4956661;28;44867;-60
2022/06/21 08:38:58;;;;;;;0.93;0.50;;;28.20;36.90;;;;;;4936106;28;44686;-61
2022/06/21 08:41:55;;;;;;;0.50;0.47;;;28.20;37.50;;;;;;4942593;28;46231;-58
2022/06/21 08:44:45;;;;;;;0.77;0.40;;;28.30;37.00;;;;;;4960543;28;45444;-60
2022/06/21 08:47:38;;;;;;;0.65;0.40;;;28.30;37.00;;;;;;4955959;28;44970;-55
2022/06/21 08:50:42;;;;;;;0.50;0.50;;;28.30;37.00;;;;;;4956778;28;45389;-57
2022/06/21 08:53:21;;;;;;;0.63;0.40;;;28.40;37.10;;;;;;4931002;28;45914;-59
2022/06/21 08:55:57;;;;;;;0.60;0.50;;;28.40;37.00;;;;;;4955039;28;45330;-60
2022/06/21 08:58:23;;;;;;;0.57;0.50;;;28.40;37.00;;;;;;4940598;28;46170;-61
2022/06/21 09:00:56;;;;;;;2.72;0.50;;;28.40;37.00;;;;;;4957516;28;45203;-60
2022/06/21 09:03:42;;;;;;;1.10;0.47;;;28.40;37.10;;;;;;4940200;28;46076;-59
2022/06/21 09:06:26;;;;;;;1.30;0.60;;;28.50;37.10;;;;;;4956256;28;44654;-55
2022/06/21 09:09:14;;;;;;;0.70;0.60;;;28.50;37.00;;;;;;4959238;28;45504;-59
2022/06/21 09:11:55;;;;;;;0.63;0.50;;;28.50;37.10;;;;;;4938993;28;45047;-58
2022/06/21 09:14:28;;;;;;;0.65;0.50;;;28.60;37.20;;;;;;4959458;28;46261;-60
2022/06/21 09:17:04;;;;;;;0.50;0.45;;;28.60;37.10;;;;;;4939497;28;45297;-59
2022/06/21 09:19:52;;;;;;;0.98;0.60;;;28.60;37.10;;;;;;4943190;28;44986;-59
2022/06/21 09:22:31;;;;;;;0.32;0.32;;;28.60;37.10;;;;;;4943903;28;45278;-58
2022/06/21 09:25:18;;;;;;;0.75;0.50;;;28.60;37.20;;;;;;4953636;28;46225;-58
2022/06/21 09:27:48;;;;;;;0.82;0.50;;;28.70;37.30;;;;;;4937667;28;44925;-59
2022/06/21 09:30:17;;;;;;;0.90;0.43;;;28.70;37.20;;;;;;4958587;28;44701;-60
2022/06/21 09:33:03;;;;;;;0.63;0.60;;;28.70;37.20;;;;;;4923868;28;44778;-60
2022/06/21 09:35:53;;;;;;;0.50;0.50;;;28.80;37.40;;;;;;4954728;28;46041;-59
2022/06/21 09:38:47;;;;;;;0.80;0.50;;;28.80;37.40;;;;;;4924395;28;45246;-61
2022/06/21 09:41:40;;;;;;;0.90;0.40;;;28.80;37.40;;;;;;4890514;28;48316;-60
2022/06/21 09:44:24;;;;;;;1.00;0.60;;;28.80;37.40;;;;;;4943594;28;44982;-58
2022/06/21 09:47:06;;;;;;;0.55;0.45;;;28.90;37.40;;;;;;4924541;28;46042;-58
2022/06/21 09:49:48;;;;;;;0.60;0.35;;;28.90;37.30;;;;;;4956631;28;45342;-59
2022/06/21 09:52:40;;;;;;;1.55;0.50;;;28.90;37.50;;;;;;4949673;28;45667;-60
2022/06/21 09:55:24;;;;;;;0.52;0.35;;;28.90;37.40;;;;;;4944061;28;45325;-57
2022/06/21 09:58:05;;;;;;;1.60;0.50;;;28.90;37.50;;;;;;4943906;28;45427;-63
2022/06/21 10:00:45;;;;;;;0.30;0.30;;;29.00;37.60;;;;;;4913540;28;45210;-60
2022/06/21 10:03:39;;;;;;;0.88;0.50;;;29.00;37.50;;;;;;4934289;28;45361;-61
2022/06/21 10:06:25;;;;;;;0.45;0.40;;;29.00;37.60;;;;;;4942527;28;45216;-61
2022/06/21 10:09:11;;;;;;;0.55;0.40;;;29.00;37.40;;;;;;4941285;28;45608;-62
2022/06/21 10:11:56;;;;;;;0.50;0.40;;;29.10;37.50;;;;;;4951347;28;45477;-62
2022/06/21 10:14:40;;;;;;;2.92;0.40;;;29.10;37.50;;;;;;4932821;28;45355;-61
2022/06/21 10:17:33;;;;;;;0.40;0.40;;;29.10;37.40;;;;;;4952842;28;45237;-60
2022/06/21 10:20:18;;;;;;;0.57;0.43;;;29.10;37.40;;;;;;4935888;28;46362;-62
2022/06/21 10:22:53;;;;;;;1.00;0.60;;;29.20;37.50;;;;;;4954836;28;44637;-62
2022/06/21 10:25:39;;;;;;;1.45;0.60;;;29.20;37.50;;;;;;4950491;28;44804;-61
2022/06/21 10:28:15;;;;;;;0.30;0.28;;;29.20;37.40;;;;;;4952366;28;45522;-62
2022/06/21 10:30:49;;;;;;;1.05;0.47;;;29.20;37.30;;;;;;4924594;28;46891;-59
2022/06/21 10:33:21;;;;;;;;;;;29.30;37.40;;;;;;4908898;28;45323;-60
2022/06/21 10:36:01;;;;;;;0.30;0.30;;;29.20;37.30;;;;;;4954586;28;45237;-61
2022/06/21 10:38:39;;;;;;;0.43;0.30;;;29.30;37.30;;;;;;4936653;28;45558;-62
2022/06/21 10:41:25;;;;;;;0.77;0.50;;;29.30;37.30;;;;;;4907512;28;45627;-61
2022/06/21 10:44:07;;;;;;;0.40;0.40;;;29.30;37.30;;;;;;4923393;28;44666;-60
2022/06/21 10:46:45;;;;;;;0.90;0.45;;;29.30;37.20;;;;;;4934059;28;44931;-62
2022/06/21 10:49:24;;;;;;;0.90;0.60;;;29.40;37.20;;;;;;4953449;28;45379;-62
2022/06/21 10:51:58;;;;;;;0.68;0.63;;;29.40;37.70;;;;;;4951480;28;45825;-60
2022/06/21 10:54:36;;;;;;;0.80;0.52;;;29.40;37.20;;;;;;4952269;28;45350;-60
2022/06/21 10:57:30;;;;;;;0.77;0.60;;;29.40;37.20;;;;;;4960698;28;45058;-60
2022/06/21 11:03:04;;;;;;;1.15;0.50;;;29.40;37.20;;;;;;4937850;28;45369;-59
2022/06/21 11:05:48;;;;;;;0.90;0.57;;;29.40;37.20;;;;;;4951857;28;44640;-61
2022/06/21 11:08:37;;;;;;;0.90;0.60;;;29.50;37.20;;;;;;4958152;28;45154;-60
2022/06/21 11:11:35;;;;;;;2.10;0.60;;;29.40;37.10;;;;;;4918710;28;45671;-58
2022/06/21 11:14:07;;;;;;;0.60;0.40;;;29.50;37.20;;;;;;4956050;28;46257;-60
2022/06/21 11:16:44;;;;;;;0.70;0.70;;;29.50;37.30;;;;;;4954619;28;45170;-59
2022/06/21 11:19:22;;;;;;;0.50;0.40;;;29.50;37.30;;;;;;4936572;28;45470;-59
2022/06/21 11:22:16;;;;;;;0.43;0.43;;;29.50;37.30;;;;;;4956833;28;45348;-60
2022/06/21 11:25:20;;;;;;;0.90;0.50;;;29.50;37.40;;;;;;4956375;28;45246;-59
2022/06/21 11:28:19;;;;;;;0.40;0.40;;;29.60;37.50;;;;;;4944357;28;45451;-59
2022/06/21 11:31:12;;;;;;;3.22;0.65;;;29.60;37.50;;;;;;4906612;28;44757;-60
2022/06/21 11:33:59;;;;;;;0.45;0.45;;;29.60;37.60;;;;;;4958371;28;45364;-59
2022/06/21 11:36:46;;;;;;;0.60;0.40;;;29.60;37.50;;;;;;4954117;28;46190;-59
2022/06/21 11:39:43;;;;;;;0.85;0.52;;;29.60;37.50;;;;;;4955376;28;45166;-60
2022/06/21 11:42:51;;;;;;;1.02;0.63;;;29.70;37.60;;;;;;4955682;28;45202;-62
2022/06/21 11:45:22;;;;;;;0.85;0.40;;;29.70;37.80;;;;;;4895886;28;45712;-60
2022/06/21 11:48:23;;;;;;;0.88;0.60;;;29.70;37.60;;;;;;4944295;28;46050;-58
2022/06/21 11:51:04;;;;;;;1.15;0.73;;;29.70;37.80;;;;;;4929961;28;45065;-59
2022/06/21 11:53:36;;;;;;;3.03;0.50;;;29.70;37.80;;;;;;4950692;28;45233;-57
2022/06/21 11:56:22;;;;;;;0.80;0.57;;;29.70;37.80;;;;;;4955138;28;45247;-57
2022/06/21 11:59:07;;;;;;;2.15;0.50;;;29.70;37.90;;;;;;4955461;28;47316;-60
2022/06/21 12:01:53;;;;;;;0.57;0.57;;;29.70;37.90;;;;;;4950931;28;45767;-60
2022/06/21 12:04:37;;;;;;;0.85;0.50;;;29.70;37.90;;;;;;4924255;28;44674;-58
2022/06/21 12:07:16;;;;;;;0.95;0.40;;;29.70;37.90;;;;;;4936666;28;45214;-58
2022/06/21 12:10:07;;;;;;;1.10;0.60;;;29.80;38.20;;;;;;4932574;28;45964;-59
2022/06/21 12:12:59;;;;;;;0.40;0.40;;;29.80;38.20;;;;;;4934936;28;45373;-58
2022/06/21 12:15:43;;;;;;;0.60;0.40;;;29.80;38.10;;;;;;4939557;28;45258;-58
2022/06/21 12:18:14;;;;;;;1.13;0.50;;;29.80;38.00;;;;;;4938434;28;45692;-59
2022/06/21 12:20:46;;;;;;;1.13;0.70;;;29.80;38.00;;;;;;4935362;28;46115;-59
2022/06/21 12:23:41;;;;;;;0.45;0.40;;;29.80;38.00;;;;;;4938915;28;45184;-61
2022/06/21 12:26:09;;;;;;;0.50;0.40;;;29.80;38.10;;;;;;4922195;28;45432;-59
2022/06/21 12:28:35;;;;;;;0.50;0.43;;;29.80;38.00;;;;;;4936565;28;45469;-60
2022/06/21 12:31:09;;;;;;;0.60;0.40;;;29.80;38.00;;;;;;4916798;28;46559;-61
2022/06/21 12:33:36;;;;;;;0.88;0.47;;;29.80;38.00;;;;;;4920005;28;45426;-59
2022/06/21 12:36:02;;;;;;;0.50;0.50;;;29.80;38.00;;;;;;4929924;28;45560;-56
2022/06/21 12:38:37;;;;;;;0.60;0.50;;;29.90;38.10;;;;;;4939746;28;44818;-58
2022/06/21 12:41:31;;;;;;;0.95;0.60;;;29.80;38.20;;;;;;4932205;28;46667;-58
2022/06/21 12:44:28;;;;;;;0.95;0.43;;;29.90;38.30;;;;;;4923082;28;44834;-59
2022/06/21 12:47:39;;;;;;;0.50;0.50;;;29.90;38.30;;;;;;4933176;28;45394;-58
2022/06/21 12:50:32;;;;;;;3.80;0.50;;;29.90;38.30;;;;;;4925022;28;45330;-58
2022/06/21 12:53:07;;;;;;;0.52;0.30;;;29.90;38.20;;;;;;4933281;28;46634;-60
2022/06/21 12:55:54;;;;;;;1.20;0.80;;;30.00;38.20;;;;;;4936214;28;45270;-63
2022/06/21 12:58:39;;;;;;;;;;;30.00;38.10;;;;;;4934451;28;45014;-59
2022/06/21 13:01:21;;;;;;;0.52;0.43;;;30.00;38.20;;;;;;4933915;28;45300;-62
2022/06/21 13:04:25;;;;;;;0.45;0.45;;;30.00;38.20;;;;;;4931459;28;46180;-60
2022/06/21 13:07:09;;;;;;;0.65;0.40;;;30.00;38.20;;;;;;4931106;28;46290;-61
2022/06/21 13:10:06;;;;;;;1.17;0.40;;;30.00;38.10;;;;;;4920433;28;45447;-59
2022/06/21 13:12:43;;;;;;;0.40;0.38;;;30.00;38.10;;;;;;4929031;28;45490;-59
2022/06/21 13:15:17;;;;;;;0.82;0.60;;;30.00;38.70;;;;;;4935561;28;45548;-59
2022/06/21 13:18:11;;;;;;;0.88;0.50;;;30.00;38.10;;;;;;4940897;28;44969;-59
2022/06/21 13:20:36;;;;;;;0.50;0.50;;;30.10;38.10;;;;;;4932883;28;45212;-59
2022/06/21 13:23:12;;;;;;;0.60;0.45;;;30.00;38.00;;;;;;4937831;28;44702;-61
2022/06/21 13:25:54;;;;;;;0.70;0.50;;;30.10;38.00;;;;;;4934523;28;46477;-60
2022/06/21 13:28:29;;;;;;;0.77;0.50;;;30.10;38.00;;;;;;4934658;28;45071;-58
2022/06/21 13:31:10;;;;;;;0.50;0.50;;;30.10;38.00;;;;;;4938644;28;45467;-59
2022/06/21 13:33:37;;;;;;;0.88;0.60;;;30.20;38.00;;;;;;4939431;28;45222;-61
2022/06/21 13:36:32;;;;;;;0.40;0.40;;;30.20;37.90;;;;;;4941009;28;45920;-60
2022/06/21 13:39:11;;;;;;;1.20;0.70;;;30.20;38.00;;;;;;4920590;28;45600;-56
2022/06/21 13:44:45;;;;;;;1.08;0.60;;;30.20;38.60;;;;;;4922838;28;45521;-60
2022/06/21 13:47:12;;;;;;;5.97;0.43;;;30.20;37.90;;;;;;4914397;28;45747;-60
2022/06/21 13:49:41;;;;;;;0.52;0.40;;;30.20;38.00;;;;;;4936062;28;45509;-58
2022/06/21 13:52:24;;;;;;;0.80;0.50;;;30.20;37.90;;;;;;4930694;28;45063;-60
2022/06/21 13:54:54;;;;;;;1.42;0.50;;;30.30;38.00;;;;;;4921395;28;45568;-57
2022/06/21 13:57:42;;;;;;;0.90;0.60;;;30.30;38.00;;;;;;4934272;28;45347;-61
2022/06/21 14:00:08;;;;;;;0.73;0.52;;;30.30;38.00;;;;;;4936566;28;45250;-59
2022/06/21 14:02:49;;;;;;;0.60;0.52;;;30.30;38.00;;;;;;4935434;28;44694;-61
2022/06/21 14:05:21;;;;;;;0.52;0.52;;;30.30;38.10;;;;;;4920583;28;45257;-62
2022/06/21 14:08:20;;;;;;;1.00;0.63;;;30.30;38.00;;;;;;4937240;28;46275;-63
2022/06/21 14:11:02;;;;;;;0.82;0.50;;;30.30;38.30;;;;;;4918204;28;45737;-62
2022/06/21 14:13:53;;;;;;;0.82;0.70;;;30.30;38.20;;;;;;4936246;28;45305;-63
2022/06/21 14:16:46;;;;;;;3.35;0.60;;;30.30;38.20;;;;;;4935432;28;45111;-62
2022/06/21 14:19:31;;;;;;;0.32;0.30;;;30.30;38.10;;;;;;4934038;28;47332;-63
2022/06/21 14:22:23;;;;;;;0.88;0.60;;;30.40;38.20;;;;;;4941862;28;45274;-62
2022/06/21 14:24:54;;;;;;;0.60;0.60;;;30.40;38.10;;;;;;4922567;28;45124;-64
2022/06/21 14:27:34;;;;;;;0.80;0.60;;;30.40;38.00;;;;;;4937498;28;44780;-62
2022/06/21 14:30:05;;;;;;;1.42;0.68;;;30.40;38.00;;;;;;4932503;28;45985;-63
2022/06/21 14:32:35;;;;;;;0.50;0.47;;;30.40;37.90;;;;;;4929145;28;45231;-61
2022/06/21 14:35:03;;;;;;;0.52;0.47;;;30.40;38.00;;;;;;4925750;28;45376;-62
2022/06/21 14:37:59;;;;;;;0.70;0.52;;;30.40;38.00;;;;;;4929504;28;45041;-63
2022/06/21 14:40:59;;;;;;;1.13;0.80;;;30.40;38.00;;;;;;4925947;28;46328;-62
2022/06/21 14:43:30;;;;;;;0.60;0.60;;;30.30;37.90;;;;;;4929366;28;45301;-63
2022/06/21 14:46:17;;;;;;;0.98;0.50;;;30.30;38.00;;;;;;4926058;28;45283;-62
2022/06/21 14:48:56;;;;;;;1.10;0.57;;;30.30;37.90;;;;;;4923848;28;45318;-62
2022/06/21 14:51:36;;;;;;;0.50;0.47;;;30.30;37.80;;;;;;4937236;28;46081;-63
2022/06/21 14:54:05;;;;;;;0.40;0.40;;;30.30;37.80;;;;;;4920731;28;44712;-63
2022/06/21 14:57:03;;;;;;;0.60;0.60;;;30.30;37.90;;;;;;4921690;28;46376;-63
2022/06/21 14:59:55;;;;;;;1.48;0.50;;;30.30;37.90;;;;;;4907784;28;44773;-59
2022/06/21 15:02:43;;;;;;;0.50;0.50;;;30.30;37.90;;;;;;4901897;28;45392;-59
2022/06/21 15:05:21;;;;;;;0.73;0.60;;;30.30;37.90;;;;;;4923433;28;44818;-62
2022/06/21 15:07:53;;;;;;;0.70;0.68;;;30.30;37.90;;;;;;4928522;28;45360;-63
2022/06/21 15:10:38;;;;;;;0.70;0.60;;;30.30;37.90;;;;;;4931067;28;45525;-62
2022/06/21 15:13:13;;;;;;;1.00;0.60;;;30.30;38.50;;;;;;4932177;28;45873;-62
2022/06/21 15:15:40;;;;;;;1.35;0.70;;;30.30;37.80;;;;;;4929982;28;45611;-63
2022/06/21 15:18:07;;;;;;;0.50;0.50;;;30.30;37.80;;;;;;4929967;28;45565;-62
2022/06/21 15:20:33;;;;;;;1.00;0.50;;;30.30;37.90;;;;;;4927130;28;45428;-61
2022/06/21 15:23:01;;;;;;;0.50;0.50;;;30.30;37.80;;;;;;4931311;28;45428;-61
2022/06/21 15:25:30;;;;;;;0.68;0.52;;;30.30;37.80;;;;;;4914537;28;45621;-62
2022/06/21 15:27:59;;;;;;;0.68;0.50;;;30.30;37.90;;;;;;4932054;28;45613;-62
2022/06/21 15:30:25;;;;;;;0.57;0.55;;;30.30;37.80;;;;;;4930958;28;45595;-62
2022/06/21 15:32:57;;;;;;;0.57;0.50;;;30.30;37.80;;;;;;4928113;28;48042;-63
2022/06/21 15:35:52;;;;;;;;;;;30.30;37.80;;;;;;4914298;28;45550;-63
2022/06/21 15:38:18;;;;;;;0.47;0.47;;;30.30;37.90;;;;;;4918863;28;45517;-62
2022/06/21 15:40:53;;;;;;;0.45;0.45;;;30.30;37.80;;;;;;4925620;28;45393;-63
2022/06/21 15:43:48;;;;;;;0.50;0.47;;;30.40;37.80;;;;;;4930333;28;47109;-62
2022/06/21 15:46:19;;;;;;;0.85;0.60;;;30.40;37.70;;;;;;4925917;28;45560;-62
2022/06/21 15:51:39;;;;;;;0.50;0.50;;;30.40;37.70;;;;;;4929921;28;45624;-64
2022/06/21 15:54:21;;;;;;;1.02;0.60;;;30.40;37.80;;;;;;4929549;28;46991;-62
2022/06/21 15:57:10;;;;;;;0.45;0.40;;;30.30;37.70;;;;;;4927968;28;45942;-61
2022/06/21 15:59:57;;;;;;;0.52;0.50;;;30.30;37.70;;;;;;4914088;28;45634;-61
2022/06/21 16:02:58;;;;;;;0.70;0.70;;;30.30;37.70;;;;;;4909683;28;45428;-63
2022/06/21 16:05:40;;;;;;;0.88;0.65;;;30.30;37.70;;;;;;4916630;28;46471;-60
2022/06/21 16:08:08;;;;;;;0.80;0.63;;;30.30;37.70;;;;;;4931126;28;45574;-61
2022/06/21 16:10:39;;;;;;;0.60;0.60;;;30.30;37.70;;;;;;4909046;28;45970;-61
2022/06/21 16:13:25;;;;;;;0.95;0.82;;;30.30;37.70;;;;;;4929518;28;45671;-62
2022/06/21 16:16:01;;;;;;;0.82;0.70;;;30.30;37.60;;;;;;4927185;28;46023;-62
2022/06/21 16:18:30;;;;;;;0.50;0.50;;;30.40;37.70;;;;;;4930661;28;45612;-61
2022/06/21 16:20:56;;;;;;;0.75;0.75;;;30.40;37.70;;;;;;4933096;28;45592;-63
2022/06/21 16:23:32;;;;;;;1.33;0.70;;;30.40;37.70;;;;;;4933817;28;45636;-63
2022/06/21 16:26:06;;;;;;;2.33;0.50;;;30.40;37.70;;;;;;4928992;28;45930;-59
2022/06/21 16:29:01;;;;;;;0.60;0.50;;;30.40;37.70;;;;;;4933923;28;45221;-61
2022/06/21 16:34:17;;;;;;;0.93;0.70;;;30.40;37.70;;;;;;4929181;28;45498;-62
2022/06/21 16:36:53;;;;;;;0.70;0.70;;;30.30;37.60;;;;;;4930278;28;45993;-62
2022/06/21 16:39:35;;;;;;;0.45;0.45;;;30.40;37.70;;;;;;4918145;28;45356;-62
2022/06/21 16:45:13;;;;;;;0.75;0.60;;;30.40;37.60;;;;;;4934142;28;46049;-61
2022/06/21 16:47:45;;;;;;;0.60;0.52;;;30.40;37.60;;;;;;4930018;28;46053;-61
2022/06/21 16:50:35;;;;;;;0.70;0.70;;;30.40;37.60;;;;;;4927467;28;45315;-61
2022/06/21 16:53:30;;;;;;;0.63;0.50;;;30.40;38.20;;;;;;4932021;28;45082;-62
2022/06/21 16:55:57;;;;;;;0.77;0.60;;;30.40;37.60;;;;;;4930426;28;45708;-62
2022/06/21 16:58:28;;;;;;;0.88;0.60;;;30.40;37.70;;;;;;4935546;28;47136;-61
2022/06/21 17:01:01;;;;;;;0.40;0.40;;;30.40;37.70;;;;;;4928168;28;45516;-61
2022/06/21 17:03:48;;;;;;;0.60;0.60;;;30.40;37.70;;;;;;4929996;28;45065;-63
2022/06/21 17:06:47;;;;;;;0.63;0.60;;;30.40;37.70;;;;;;4915120;28;45510;-62
2022/06/21 17:09:18;;;;;;;0.55;0.55;;;30.40;37.70;;;;;;4924380;28;46179;-63